createdAt,value
2018-05-07T00:01:50.334Z,1.60
2018-05-07T00:04:17.901Z,1.80
2018-05-07T00:06:45.366Z,1.87
2018-05-07T00:09:12.884Z,1.97
2018-05-07T00:11:41.219Z,1.70
2018-05-07T00:17:16.751Z,1.73
2018-05-07T00:19:45.025Z,1.90
2018-05-07T00:22:12.571Z,1.57
2018-05-07T00:24:40.060Z,1.80
2018-05-07T00:27:07.559Z,2.10
2018-05-07T00:29:35.844Z,1.93
2018-05-07T00:32:04.111Z,2.00
2018-05-07T00:34:31.743Z,2.03
2018-05-07T00:36:59.251Z,2.10
2018-05-07T00:39:26.786Z,1.73
2018-05-07T00:41:54.294Z,2.13
2018-05-07T00:44:21.799Z,1.67
2018-05-07T00:46:50.054Z,2.03
2018-05-07T00:49:17.559Z,1.97
2018-05-07T00:51:45.870Z,1.93
2018-05-07T00:54:13.391Z,1.90
2018-05-07T00:56:40.907Z,2.03
2018-05-07T00:59:08.415Z,1.87
2018-05-07T01:01:56.176Z,2.10
2018-05-07T01:04:23.680Z,2.00
2018-05-07T01:06:51.207Z,1.97
2018-05-07T01:09:18.711Z,1.70
2018-05-07T01:11:46.980Z,1.83
2018-05-07T01:14:14.507Z,1.70
2018-05-07T01:16:42.048Z,2.17
2018-05-07T01:19:10.325Z,2.60
2018-05-07T01:21:38.615Z,1.90
2018-05-07T01:24:06.876Z,1.57
2018-05-07T01:26:34.423Z,2.03
2018-05-07T01:29:01.925Z,1.83
2018-05-07T01:31:29.422Z,2.30
2018-05-07T01:33:57.696Z,1.77
2018-05-07T01:36:25.192Z,1.70
2018-05-07T01:38:52.707Z,2.20
2018-05-07T01:41:20.235Z,2.17
2018-05-07T01:43:48.544Z,2.00
2018-05-07T01:46:16.078Z,2.07
2018-05-07T01:48:44.361Z,1.80
2018-05-07T01:51:12.641Z,2.40
2018-05-07T01:53:40.181Z,1.83
2018-05-07T01:56:07.674Z,2.30
2018-05-07T01:58:35.212Z,1.93
2018-05-07T02:01:02.715Z,1.97
2018-05-07T02:03:30.242Z,2.07
2018-05-07T02:05:57.775Z,2.23
2018-05-07T02:08:25.264Z,2.07
2018-05-07T02:10:52.764Z,2.50
2018-05-07T02:13:20.289Z,2.00
2018-05-07T02:15:48.585Z,1.93
2018-05-07T02:18:16.892Z,2.27
2018-05-07T02:20:44.453Z,2.40
2018-05-07T02:23:11.985Z,2.20
2018-05-07T02:25:39.504Z,2.20
2018-05-07T02:28:07.007Z,1.70
2018-05-07T02:30:34.505Z,2.83
2018-05-07T02:33:02.024Z,2.20
2018-05-07T02:35:29.565Z,1.97
2018-05-07T02:37:57.881Z,2.10
2018-05-07T02:40:25.389Z,2.00
2018-05-07T02:42:52.927Z,2.77
2018-05-07T02:45:20.425Z,2.53
2018-05-07T02:47:47.940Z,2.40
2018-05-07T02:50:16.248Z,2.50
2018-05-07T02:52:43.761Z,2.10
2018-05-07T02:55:11.281Z,2.07
2018-05-07T02:57:38.787Z,2.53
2018-05-07T03:00:06.277Z,2.10
2018-05-07T03:08:19.572Z,2.47
2018-05-07T03:10:47.089Z,2.57
2018-05-07T03:13:15.378Z,2.00
2018-05-07T03:15:43.632Z,2.40
2018-05-07T03:18:11.152Z,2.27
2018-05-07T03:20:38.655Z,2.80
2018-05-07T03:23:06.179Z,2.50
2018-05-07T03:25:34.475Z,2.03
2018-05-07T03:28:01.991Z,2.60
2018-05-07T03:30:29.537Z,2.53
2018-05-07T03:32:57.093Z,2.47
2018-05-07T03:35:24.625Z,2.87
2018-05-07T03:37:52.160Z,2.50
2018-05-07T03:40:19.681Z,2.90
2018-05-07T03:42:47.977Z,2.40
2018-05-07T03:45:16.285Z,2.47
2018-05-07T03:47:43.799Z,2.27
2018-05-07T03:50:11.360Z,2.60
2018-05-07T03:52:38.855Z,2.67
2018-05-07T03:55:06.354Z,3.03
2018-05-07T03:57:33.888Z,2.80
2018-05-07T04:00:01.417Z,2.90
2018-05-07T04:02:28.956Z,2.80
2018-05-07T04:04:57.267Z,2.50
2018-05-07T04:07:27.457Z,3.00
2018-05-07T04:09:54.914Z,2.80
2018-05-07T04:12:22.440Z,3.17
2018-05-07T04:14:49.955Z,3.00
2018-05-07T04:20:33.652Z,2.83
2018-05-07T04:23:13.081Z,3.10
2018-05-07T04:25:40.547Z,2.80
2018-05-07T04:28:08.040Z,2.90
2018-05-07T04:30:35.514Z,2.73
2018-05-07T04:33:02.992Z,2.60
2018-05-07T04:38:21.243Z,3.17
2018-05-07T04:40:48.707Z,3.03
2018-05-07T04:43:16.257Z,2.70
2018-05-07T04:45:43.650Z,2.90
2018-05-07T04:48:11.115Z,2.80
2018-05-07T04:50:38.593Z,2.90
2018-05-07T04:53:06.054Z,2.83
2018-05-07T04:55:33.518Z,2.97
2018-05-07T04:58:00.983Z,2.43
2018-05-07T05:00:28.503Z,2.57
2018-05-07T05:02:55.970Z,2.90
2018-05-07T05:05:23.451Z,2.70
2018-05-07T05:07:50.919Z,2.67
2018-05-07T05:10:18.394Z,2.33
2018-05-07T05:13:06.225Z,2.63
2018-05-07T05:15:40.857Z,3.00
2018-05-07T05:18:08.330Z,2.93
2018-05-07T05:20:35.801Z,3.00
2018-05-07T05:23:03.272Z,2.73
2018-05-07T05:25:36.434Z,3.03
2018-05-07T05:28:03.923Z,3.13
2018-05-07T05:30:31.413Z,3.70
2018-05-07T05:32:59.651Z,2.73
2018-05-07T05:35:39.118Z,2.73
2018-05-07T05:38:08.612Z,3.03
2018-05-07T05:40:36.095Z,2.87
2018-05-07T05:43:03.563Z,3.13
2018-05-07T05:48:24.098Z,3.10
2018-05-07T05:59:31.391Z,2.07
2018-05-07T06:01:58.863Z,1.93
2018-05-07T06:04:26.346Z,2.10
2018-05-07T06:06:53.819Z,2.40
2018-05-07T06:09:21.297Z,2.17
2018-05-07T06:11:48.803Z,2.47
2018-05-07T06:14:16.238Z,2.60
2018-05-07T06:16:43.703Z,2.03
2018-05-07T06:19:11.182Z,2.23
2018-05-07T06:21:38.650Z,2.23
2018-05-07T06:24:06.123Z,2.07
2018-05-07T06:26:33.595Z,2.50
2018-05-07T06:29:20.332Z,2.30
2018-05-07T06:31:47.798Z,2.20
2018-05-07T06:34:15.327Z,2.13
2018-05-07T06:36:42.743Z,2.10
2018-05-07T06:39:10.222Z,2.30
2018-05-07T06:41:55.820Z,2.43
2018-05-07T06:44:23.307Z,2.30
2018-05-07T06:46:50.775Z,1.90
2018-05-07T06:49:19.031Z,2.30
2018-05-07T06:54:45.658Z,2.17
2018-05-07T06:57:15.892Z,2.23
2018-05-07T06:59:45.337Z,2.10
2018-05-07T07:02:12.844Z,2.20
2018-05-07T07:07:45.079Z,2.10
2018-05-07T07:10:12.563Z,2.40
2018-05-07T07:12:40.035Z,2.57
2018-05-07T07:15:08.274Z,2.37
2018-05-07T07:17:35.742Z,2.57
2018-05-07T07:20:03.223Z,2.33
2018-05-07T07:22:30.686Z,2.30
2018-05-07T07:24:58.166Z,2.27
2018-05-07T07:27:25.635Z,2.10
2018-05-07T07:29:53.113Z,2.20
2018-05-07T07:32:20.583Z,1.87
2018-05-07T07:34:48.062Z,2.17
2018-05-07T07:37:15.535Z,2.10
2018-05-07T07:39:43.016Z,2.00
2018-05-07T07:42:11.271Z,2.47
2018-05-07T07:44:38.779Z,2.10
2018-05-07T07:47:07.142Z,2.33
2018-05-07T07:49:35.364Z,2.70
2018-05-07T07:52:02.868Z,2.10
2018-05-07T07:54:30.432Z,2.13
2018-05-07T07:56:57.935Z,2.33
2018-05-07T07:59:25.471Z,2.50
2018-05-07T08:01:52.991Z,1.80
2018-05-07T08:04:20.524Z,2.23
2018-05-07T08:06:48.779Z,2.20
2018-05-07T08:09:16.307Z,2.23
2018-05-07T08:11:43.826Z,2.37
2018-05-07T08:14:11.316Z,2.13
2018-05-07T08:16:38.824Z,2.27
2018-05-07T08:19:06.354Z,2.93
2018-05-07T08:21:33.875Z,2.20
2018-05-07T08:24:01.374Z,2.10
2018-05-07T08:26:29.660Z,2.20
2018-05-07T08:28:57.935Z,2.20
2018-05-07T08:31:26.892Z,2.30
2018-05-07T08:33:55.365Z,1.90
2018-05-07T08:36:22.879Z,2.20
2018-05-07T08:38:50.424Z,2.10
2018-05-07T08:41:17.960Z,2.20
2018-05-07T08:43:46.244Z,2.50
2018-05-07T08:46:14.503Z,2.07
2018-05-07T08:48:42.004Z,1.90
2018-05-07T08:51:10.328Z,2.27
2018-05-07T08:53:38.727Z,2.37
2018-05-07T08:56:06.243Z,2.33
2018-05-07T08:58:34.526Z,2.00
2018-05-07T09:01:02.028Z,1.90
2018-05-07T09:03:29.527Z,1.80
2018-05-07T09:05:57.032Z,2.30
2018-05-07T09:08:24.529Z,1.90
2018-05-07T09:10:52.791Z,1.87
2018-05-07T09:13:20.296Z,1.70
2018-05-07T09:15:47.814Z,2.00
2018-05-07T09:18:15.328Z,1.97
2018-05-07T09:20:43.604Z,2.20
2018-05-07T09:23:11.872Z,1.57
2018-05-07T09:25:39.369Z,2.00
2018-05-07T09:28:07.701Z,1.80
2018-05-07T09:30:35.211Z,1.87
2018-05-07T09:33:02.700Z,1.73
2018-05-07T09:35:30.968Z,1.60
2018-05-07T09:37:58.482Z,1.70
2018-05-07T09:40:25.995Z,1.70
2018-05-07T09:42:53.591Z,2.17
2018-05-07T09:45:21.040Z,1.80
2018-05-07T09:47:48.556Z,1.57
2018-05-07T09:50:16.055Z,1.57
2018-05-07T09:52:43.620Z,1.57
2018-05-07T09:55:11.217Z,1.73
2018-05-07T10:00:37.348Z,1.93
2018-05-07T10:03:04.818Z,1.70
2018-05-07T10:05:33.755Z,1.63
2018-05-07T10:08:18.355Z,1.87
2018-05-07T10:10:45.835Z,1.70
2018-05-07T10:13:13.304Z,1.80
2018-05-07T10:15:41.555Z,1.90
2018-05-07T10:18:09.035Z,2.10
2018-05-07T10:20:36.510Z,1.50
2018-05-07T10:23:03.979Z,1.87
2018-05-07T10:25:31.455Z,1.90
2018-05-07T10:27:58.930Z,1.70
2018-05-07T10:30:26.401Z,1.60
2018-05-07T10:32:53.919Z,1.50
2018-05-07T10:35:21.467Z,2.00
2018-05-07T10:37:48.874Z,1.70
2018-05-07T10:40:16.339Z,1.90
2018-05-07T10:42:43.852Z,1.60
2018-05-07T10:45:11.295Z,1.57
2018-05-07T10:47:38.775Z,1.60
2018-05-07T10:50:06.242Z,1.57
2018-05-07T10:52:33.717Z,1.70
2018-05-07T10:55:01.189Z,1.60
2018-05-07T10:57:28.667Z,2.00
2018-05-07T10:59:56.137Z,1.53
2018-05-07T11:02:23.615Z,1.70
2018-05-07T11:04:51.082Z,1.33
2018-05-07T11:07:18.591Z,1.67
2018-05-07T11:09:46.798Z,1.63
2018-05-07T11:12:14.277Z,1.53
2018-05-07T11:14:41.742Z,1.70
2018-05-07T11:17:09.975Z,1.40
2018-05-07T11:19:38.237Z,1.50
2018-05-07T11:22:05.687Z,1.50
2018-05-07T11:24:33.926Z,1.30
2018-05-07T11:27:02.164Z,1.47
2018-05-07T11:29:29.659Z,2.07
2018-05-07T11:31:57.130Z,1.60
2018-05-07T11:34:24.599Z,1.70
2018-05-07T11:36:53.096Z,1.87
2018-05-07T11:39:20.561Z,1.70
2018-05-07T11:41:48.043Z,1.50
2018-05-07T11:44:16.358Z,1.60
2018-05-07T11:46:44.599Z,1.70
2018-05-07T11:49:12.079Z,1.50
2018-05-07T11:51:39.700Z,1.80
2018-05-07T11:54:07.154Z,1.77
2018-05-07T11:56:35.488Z,1.90
2018-05-07T11:59:02.983Z,1.80
2018-05-07T12:01:30.455Z,1.67
2018-05-07T12:03:57.923Z,1.60
2018-05-07T12:06:25.401Z,1.60
2018-05-07T12:08:52.861Z,1.63
2018-05-07T12:14:20.606Z,2.00
2018-05-07T12:16:48.848Z,1.30
2018-05-07T12:19:16.380Z,1.50
2018-05-07T12:21:43.851Z,1.70
2018-05-07T12:24:11.318Z,1.80
2018-05-07T12:26:38.798Z,1.30
2018-05-07T12:29:06.269Z,1.67
2018-05-07T12:31:33.876Z,1.50
2018-05-07T12:34:01.219Z,1.50
2018-05-07T12:36:28.733Z,1.90
2018-05-07T12:38:56.261Z,1.60
2018-05-07T12:41:23.736Z,1.57
2018-05-07T12:43:51.209Z,1.47
2018-05-07T12:46:19.442Z,1.60
2018-05-07T12:48:47.679Z,1.60
2018-05-07T12:51:15.166Z,1.67
2018-05-07T12:53:42.635Z,1.60
2018-05-07T12:56:10.115Z,1.40
2018-05-07T12:58:37.591Z,1.70
2018-05-07T13:01:05.119Z,1.50
2018-05-07T13:03:32.609Z,1.57
2018-05-07T13:06:00.079Z,1.50
2018-05-07T13:08:27.587Z,1.67
2018-05-07T13:10:56.799Z,1.60
2018-05-07T13:13:25.044Z,1.53
2018-05-07T13:15:52.508Z,1.90
2018-05-07T13:18:19.983Z,1.90
2018-05-07T13:20:47.463Z,1.77
2018-05-07T13:23:14.935Z,1.80
2018-05-07T13:25:42.410Z,1.50
2018-05-07T13:28:09.889Z,1.60
2018-05-07T13:30:37.350Z,1.63
2018-05-07T13:33:04.827Z,1.60
2018-05-07T13:35:32.297Z,2.50
2018-05-07T13:37:59.770Z,2.10
2018-05-07T13:40:27.242Z,1.67
2018-05-07T13:42:54.723Z,1.67
2018-05-07T13:45:22.953Z,1.50
2018-05-07T13:47:50.450Z,1.60
2018-05-07T13:50:17.907Z,1.50
2018-05-07T13:52:45.523Z,1.80
2018-05-07T13:55:13.750Z,1.80
2018-05-07T13:57:48.704Z,1.93
2018-05-07T14:03:24.383Z,1.80
2018-05-07T14:05:51.837Z,1.63
2018-05-07T14:08:19.415Z,1.47
2018-05-07T14:10:46.895Z,1.80
2018-05-07T14:13:14.383Z,1.77
2018-05-07T14:15:48.235Z,1.50
2018-05-07T14:18:16.259Z,1.80
2018-05-07T14:20:43.735Z,1.83
2018-05-07T14:23:11.226Z,1.73
2018-05-07T14:25:38.695Z,1.80
2018-05-07T14:28:06.178Z,1.80
2018-05-07T14:30:33.646Z,1.93
2018-05-07T14:33:01.119Z,1.83
2018-05-07T14:35:28.592Z,1.53
2018-05-07T14:37:56.292Z,1.90
2018-05-07T14:40:29.618Z,2.03
2018-05-07T14:42:57.883Z,1.53
2018-05-07T14:45:25.358Z,1.77
2018-05-07T14:47:52.835Z,1.80
2018-05-07T14:50:21.158Z,1.93
2018-05-07T14:52:48.555Z,1.60
2018-05-07T14:55:19.959Z,1.70
2018-05-07T14:57:48.198Z,1.67
2018-05-07T15:00:15.699Z,1.80
2018-05-07T15:02:43.179Z,2.00
2018-05-07T15:05:24.680Z,1.50
2018-05-07T15:07:52.161Z,1.80
2018-05-07T15:10:20.391Z,1.47
2018-05-07T15:12:55.059Z,1.77
2018-05-07T15:15:22.577Z,1.77
2018-05-07T15:17:50.068Z,1.57
2018-05-07T15:20:31.886Z,1.67
2018-05-07T15:22:59.355Z,1.80
2018-05-07T15:25:26.834Z,2.17
2018-05-07T15:27:54.357Z,1.70
2018-05-07T15:30:22.584Z,1.70
2018-05-07T15:32:50.245Z,1.80
2018-05-07T15:35:17.923Z,1.83
2018-05-07T15:37:45.451Z,2.03
2018-05-07T15:40:14.170Z,2.03
2018-05-07T15:42:41.679Z,1.77
2018-05-07T15:45:09.246Z,1.40
2018-05-07T15:47:36.641Z,2.00
2018-05-07T15:50:04.782Z,1.60
2018-05-07T15:52:32.287Z,1.97
2018-05-07T15:54:59.770Z,1.80
2018-05-07T15:57:27.255Z,1.90
2018-05-07T15:59:55.490Z,2.00
2018-05-07T16:02:23.463Z,1.77
2018-05-07T16:04:51.084Z,4.27
2018-05-07T16:07:18.682Z,1.80
2018-05-07T16:09:46.166Z,2.20
2018-05-07T16:12:13.638Z,2.30
2018-05-07T16:14:43.203Z,1.70
2018-05-07T16:17:10.684Z,5.47
2018-05-07T16:19:38.155Z,2.50
2018-05-07T16:22:06.507Z,3.50
2018-05-07T16:24:34.760Z,1.97
2018-05-07T16:27:23.723Z,1.77
2018-05-07T16:29:53.002Z,2.87
2018-05-07T16:32:20.470Z,1.90
2018-05-07T16:34:47.982Z,1.90
2018-05-07T16:37:18.533Z,2.10
2018-05-07T16:39:46.050Z,1.87
2018-05-07T16:42:13.523Z,2.10
2018-05-07T16:44:41.764Z,1.83
2018-05-07T16:47:09.183Z,2.13
2018-05-07T16:49:36.666Z,1.57
2018-05-07T16:52:04.139Z,1.73
2018-05-07T16:54:31.623Z,2.43
2018-05-07T16:56:59.867Z,2.40
2018-05-07T16:59:28.123Z,2.00
2018-05-07T17:01:55.659Z,2.00
2018-05-07T17:04:23.269Z,1.60
2018-05-07T17:06:50.778Z,2.10
2018-05-07T17:09:18.254Z,2.20
2018-05-07T17:11:46.004Z,2.50
2018-05-07T17:14:13.486Z,1.93
2018-05-07T17:16:40.938Z,2.10
2018-05-07T17:19:08.462Z,2.00
2018-05-07T17:21:36.711Z,2.03
2018-05-07T17:24:04.187Z,2.30
2018-05-07T17:26:31.679Z,2.30
2018-05-07T17:28:59.159Z,2.10
2018-05-07T17:31:26.681Z,1.93
2018-05-07T17:33:54.278Z,3.30
2018-05-07T17:36:22.450Z,2.00
2018-05-07T17:38:49.943Z,1.80
2018-05-07T17:41:17.490Z,2.07
2018-05-07T17:43:44.987Z,1.93
2018-05-07T17:49:33.675Z,2.30
2018-05-07T17:52:01.496Z,2.53
2018-05-07T17:54:29.837Z,2.50
2018-05-07T17:56:57.225Z,2.70
2018-05-07T17:59:25.538Z,2.50
2018-05-07T18:01:52.995Z,2.43
2018-05-07T18:04:21.242Z,2.00
2018-05-07T18:06:48.722Z,2.07
2018-05-07T18:09:18.265Z,2.80
2018-05-07T18:11:45.730Z,2.20
2018-05-07T18:14:13.202Z,2.33
2018-05-07T18:16:40.687Z,2.30
2018-05-07T18:19:09.565Z,2.43
2018-05-07T18:21:37.027Z,2.30
2018-05-07T18:24:04.503Z,2.03
2018-05-07T18:26:32.035Z,2.83
2018-05-07T18:28:59.456Z,2.10
2018-05-07T18:31:26.928Z,2.03
2018-05-07T18:33:55.676Z,2.10
2018-05-07T18:36:23.158Z,2.00
2018-05-07T18:38:50.674Z,2.10
2018-05-07T18:41:18.146Z,1.83
2018-05-07T18:43:45.631Z,2.03
2018-05-07T18:46:13.893Z,1.93
2018-05-07T18:48:41.367Z,2.13
2018-05-07T18:51:08.839Z,2.30
2018-05-07T18:53:37.092Z,2.30
2018-05-07T18:56:04.572Z,2.57
2018-05-07T18:58:32.063Z,2.40
2018-05-07T19:00:59.659Z,2.40
2018-05-07T19:03:27.173Z,2.33
2018-05-07T19:05:55.461Z,2.23
2018-05-07T19:08:22.963Z,1.80
2018-05-07T19:10:50.455Z,2.10
2018-05-07T19:13:19.068Z,2.20
2018-05-07T19:15:46.600Z,2.20
2018-05-07T19:18:14.897Z,2.30
2018-05-07T19:20:59.179Z,2.00
2018-05-07T19:23:26.675Z,2.00
2018-05-07T19:25:54.212Z,2.27
2018-05-07T19:28:21.728Z,2.07
2018-05-07T19:30:49.289Z,2.20
2018-05-07T19:33:17.651Z,2.30
2018-05-07T19:35:45.163Z,2.20
2018-05-07T19:38:12.712Z,2.10
2018-05-07T19:40:40.229Z,2.20
2018-05-07T19:43:07.879Z,2.17
2018-05-07T19:45:35.396Z,2.13
2018-05-07T19:48:03.737Z,2.13
2018-05-07T19:50:31.265Z,2.20
2018-05-07T19:52:58.856Z,1.70
2018-05-07T19:55:26.368Z,1.70
2018-05-07T19:57:53.896Z,1.77
2018-05-07T20:00:21.392Z,1.60
2018-05-07T20:02:56.256Z,1.63
2018-05-07T20:05:24.644Z,1.87
2018-05-07T20:07:52.152Z,2.13
2018-05-07T20:10:20.509Z,1.80
2018-05-07T20:12:48.020Z,1.57
2018-05-07T20:15:16.291Z,1.57
2018-05-07T20:17:43.820Z,1.43
2018-05-07T20:20:11.347Z,1.47
2018-05-07T20:22:39.616Z,1.60
2018-05-07T20:25:07.116Z,1.90
2018-05-07T20:27:36.103Z,1.90
2018-05-07T20:30:03.646Z,1.33
2018-05-07T20:35:24.903Z,1.57
2018-05-07T20:37:52.429Z,1.33
2018-05-07T20:40:20.816Z,1.40
2018-05-07T20:42:48.468Z,1.43
2018-05-07T20:45:16.733Z,1.27
2018-05-07T20:47:44.268Z,1.30
2018-05-07T20:50:11.793Z,1.40
2018-05-07T20:52:39.300Z,1.20
2018-05-07T20:55:07.851Z,1.60
2018-05-07T20:57:35.336Z,1.37
2018-05-07T21:00:03.624Z,1.40
2018-05-07T21:02:31.156Z,1.20
2018-05-07T21:04:59.971Z,1.30
2018-05-07T21:07:27.519Z,1.40
2018-05-07T21:09:55.036Z,1.40
2018-05-07T21:12:22.523Z,1.27
2018-05-07T21:14:52.233Z,1.20
2018-05-07T21:17:43.560Z,1.40
2018-05-07T21:20:11.839Z,1.70
2018-05-07T21:22:39.332Z,1.20
2018-05-07T21:25:08.223Z,1.27
2018-05-07T21:27:35.740Z,1.20
2018-05-07T21:30:04.392Z,1.03
2018-05-07T21:32:32.655Z,1.03
2018-05-07T21:35:00.155Z,1.00
2018-05-07T21:37:27.666Z,1.33
2018-05-07T21:39:55.160Z,1.33
2018-05-07T21:42:22.666Z,1.20
2018-05-07T21:44:50.168Z,1.10
2018-05-07T21:47:17.678Z,1.27
2018-05-07T21:49:45.520Z,1.03
2018-05-07T21:52:13.085Z,1.10
2018-05-07T21:54:40.577Z,1.23
2018-05-07T21:57:08.119Z,1.20
2018-05-07T21:59:35.643Z,1.37
2018-05-07T22:02:03.152Z,1.50
2018-05-07T22:04:31.431Z,1.40
2018-05-07T22:06:59.701Z,1.30
2018-05-07T22:09:28.379Z,1.30
2018-05-07T22:11:55.889Z,1.10
2018-05-07T22:14:25.255Z,1.43
2018-05-07T22:16:54.024Z,1.10
2018-05-07T22:19:22.312Z,1.40
2018-05-07T22:21:49.812Z,1.30
2018-05-07T22:24:17.331Z,1.30
2018-05-07T22:26:45.659Z,1.67
2018-05-07T22:29:13.183Z,1.40
2018-05-07T22:31:40.701Z,1.63
2018-05-07T22:34:08.216Z,1.40
2018-05-07T22:36:35.715Z,1.53
2018-05-07T22:39:04.031Z,1.47
2018-05-07T22:41:31.502Z,1.43
2018-05-07T22:52:39.864Z,1.53
2018-05-07T22:55:07.378Z,1.47
2018-05-07T22:57:34.892Z,1.53
2018-05-07T23:00:02.425Z,1.50
2018-05-07T23:02:29.922Z,2.10
2018-05-07T23:04:57.447Z,1.63
2018-05-07T23:07:25.795Z,1.70
2018-05-07T23:09:53.282Z,1.90
2018-05-07T23:12:20.847Z,1.70
2018-05-07T23:14:48.386Z,2.00
2018-05-07T23:17:15.941Z,1.67
2018-05-07T23:19:44.306Z,2.00
2018-05-07T23:22:11.828Z,1.80
2018-05-07T23:24:39.320Z,1.60
2018-05-07T23:27:06.825Z,1.63
2018-05-07T23:29:35.108Z,1.70
2018-05-07T23:32:03.411Z,2.03
2018-05-07T23:34:33.694Z,1.60
2018-05-07T23:37:01.233Z,1.57
2018-05-07T23:39:28.762Z,2.07
2018-05-07T23:41:56.281Z,2.00
2018-05-07T23:44:23.775Z,1.30
2018-05-07T23:46:51.280Z,1.70
2018-05-07T23:49:18.777Z,1.70
2018-05-07T23:51:46.280Z,1.90
2018-05-07T23:54:13.791Z,1.97
2018-05-07T23:56:41.315Z,1.50
2018-05-07T23:59:08.843Z,1.97
